createdAt,value
2022-08-25T00:00:12.085Z,99199.34
2022-08-25T00:02:39.767Z,99192.41
2022-08-25T00:05:07.649Z,99194.31
2022-08-25T00:07:36.459Z,99188.97
2022-08-25T00:10:05.164Z,99190.88
2022-08-25T00:12:32.351Z,99181.34
2022-08-25T00:14:59.722Z,99186.69
2022-08-25T00:17:28.199Z,99195.25
2022-08-25T00:19:55.629Z,99188.09
2022-08-25T00:22:22.826Z,99187.63
2022-08-25T00:24:50.271Z,99186.09
2022-08-25T00:27:18.044Z,99180.28
2022-08-25T00:29:45.257Z,99183.44
2022-08-25T00:32:13.360Z,99186.84
2022-08-25T00:34:40.666Z,99192.84
2022-08-25T00:37:09.429Z,99189.12
2022-08-25T00:39:37.372Z,99182.72
2022-08-25T00:42:05.668Z,99178.28
2022-08-25T00:44:39.424Z,99183.25
2022-08-25T00:47:06.987Z,99184.94
2022-08-25T00:49:39.189Z,99178.84
2022-08-25T00:52:11.895Z,99176.66
2022-08-25T00:54:40.871Z,99183.28
2022-08-25T00:57:08.893Z,99187.44
2022-08-25T00:59:36.141Z,99185.72
2022-08-25T01:02:04.399Z,99181.50
2022-08-25T01:04:31.879Z,99173.03
2022-08-25T01:06:59.044Z,99175.31
2022-08-25T01:09:26.234Z,99174.66
2022-08-25T01:11:53.688Z,99170.16
2022-08-25T01:14:20.986Z,99169.81
2022-08-25T01:16:53.590Z,99170.94
2022-08-25T01:19:21.752Z,99175.00
2022-08-25T01:21:49.719Z,99174.56
2022-08-25T01:24:21.452Z,99180.28
2022-08-25T01:26:48.916Z,99175.91
2022-08-25T01:29:21.755Z,99183.59
2022-08-25T01:31:49.836Z,99176.47
2022-08-25T01:34:17.450Z,99180.38
2022-08-25T01:36:45.370Z,99170.16
2022-08-25T01:39:13.132Z,99159.19
2022-08-25T01:41:46.272Z,99165.63
2022-08-25T01:44:16.670Z,99164.88
2022-08-25T01:46:44.315Z,99165.00
2022-08-25T01:49:11.597Z,99172.38
2022-08-25T01:51:40.395Z,99173.31
2022-08-25T01:54:07.549Z,99170.44
2022-08-25T01:56:34.714Z,99173.03
2022-08-25T01:59:02.138Z,99178.44
2022-08-25T02:01:29.374Z,99175.41
2022-08-25T02:03:57.090Z,99170.75
2022-08-25T02:06:29.845Z,99171.59
2022-08-25T02:09:08.903Z,99170.37
2022-08-25T02:11:36.957Z,99175.38
2022-08-25T02:14:04.958Z,99161.72
2022-08-25T02:16:33.350Z,99155.19
2022-08-25T02:19:00.667Z,99168.63
2022-08-25T02:21:28.312Z,99165.03
2022-08-25T02:23:56.571Z,99165.03
2022-08-25T02:26:23.759Z,99157.00
2022-08-25T02:28:51.639Z,99155.69
2022-08-25T02:31:19.803Z,99158.44
2022-08-25T02:33:47.027Z,99157.09
2022-08-25T02:36:14.616Z,99152.91
2022-08-25T02:38:41.860Z,99157.03
2022-08-25T02:41:13.867Z,99157.22
2022-08-25T02:43:41.984Z,99154.84
2022-08-25T02:46:09.658Z,99158.75
2022-08-25T02:48:37.582Z,99153.50
2022-08-25T02:51:06.536Z,99155.41
2022-08-25T02:53:33.853Z,99144.94
2022-08-25T02:56:01.059Z,99149.41
2022-08-25T02:58:29.144Z,99147.87
2022-08-25T03:00:56.760Z,99150.25
2022-08-25T03:03:24.000Z,99151.12
2022-08-25T03:05:51.432Z,99146.25
2022-08-25T03:08:18.648Z,99147.41
2022-08-25T03:10:45.849Z,99148.91
2022-08-25T03:13:14.900Z,99149.78
2022-08-25T03:15:42.571Z,99144.00
2022-08-25T03:18:11.720Z,99141.31
2022-08-25T03:20:41.560Z,99145.28
2022-08-25T03:23:08.746Z,99143.28
2022-08-25T03:25:54.519Z,99141.72
2022-08-25T03:28:25.001Z,99140.69
2022-08-25T03:30:57.552Z,99146.69
2022-08-25T03:33:25.023Z,99148.19
2022-08-25T03:35:52.330Z,99146.69
2022-08-25T03:38:19.483Z,99154.22
2022-08-25T03:40:46.981Z,99156.28
2022-08-25T03:43:14.151Z,99157.94
2022-08-25T03:45:42.185Z,99158.50
2022-08-25T03:48:09.684Z,99154.84
2022-08-25T03:50:37.168Z,99149.81
2022-08-25T03:53:04.353Z,99152.16
2022-08-25T03:55:31.787Z,99138.00
2022-08-25T03:57:59.941Z,99145.22
2022-08-25T04:00:27.222Z,99142.38
2022-08-25T04:02:54.673Z,99142.16
2022-08-25T04:05:21.968Z,99151.69
2022-08-25T04:07:49.158Z,99146.00
2022-08-25T04:10:16.607Z,99144.09
2022-08-25T04:12:44.038Z,99148.88
2022-08-25T04:15:11.466Z,99156.34
2022-08-25T04:17:39.806Z,99160.72
2022-08-25T04:20:08.788Z,99155.78
2022-08-25T04:22:36.870Z,99161.59
2022-08-25T04:25:05.828Z,99156.78
2022-08-25T04:27:33.004Z,99156.44
2022-08-25T04:30:00.225Z,99156.63
2022-08-25T04:32:28.017Z,99160.81
2022-08-25T04:34:55.551Z,99159.41
2022-08-25T04:37:22.731Z,99150.91
2022-08-25T04:39:50.239Z,99151.06
2022-08-25T04:42:17.599Z,99158.81
2022-08-25T04:44:44.808Z,99155.03
2022-08-25T04:47:12.720Z,99149.59
2022-08-25T04:49:40.026Z,99149.25
2022-08-25T04:52:13.068Z,99153.63
2022-08-25T04:54:42.448Z,99151.91
2022-08-25T04:57:09.952Z,99150.97
2022-08-25T04:59:37.137Z,99150.44
2022-08-25T05:02:05.469Z,99155.53
2022-08-25T05:04:33.397Z,99147.56
2022-08-25T05:07:00.660Z,99150.03
2022-08-25T05:09:28.323Z,99152.25
2022-08-25T05:11:55.492Z,99154.84
2022-08-25T05:14:25.757Z,99151.69
2022-08-25T05:16:54.740Z,99151.62
2022-08-25T05:19:23.738Z,99152.63
2022-08-25T05:21:51.189Z,99149.84
2022-08-25T05:24:19.018Z,99142.78
2022-08-25T05:26:46.239Z,99149.91
2022-08-25T05:29:14.421Z,99152.03
2022-08-25T05:31:47.075Z,99146.63
2022-08-25T05:34:18.882Z,99148.53
2022-08-25T05:36:46.856Z,99140.75
2022-08-25T05:39:14.547Z,99151.28
2022-08-25T05:41:41.725Z,99155.03
2022-08-25T05:44:09.162Z,99147.69
2022-08-25T05:46:36.306Z,99151.56
2022-08-25T05:49:03.623Z,99142.78
2022-08-25T05:51:31.127Z,99146.28
2022-08-25T05:54:00.852Z,99147.94
2022-08-25T05:56:28.019Z,99144.44
2022-08-25T05:58:55.576Z,99141.59
2022-08-25T06:01:43.517Z,99142.81
2022-08-25T06:04:13.713Z,99147.22
2022-08-25T06:06:42.115Z,99145.28
2022-08-25T06:09:09.737Z,99151.59
2022-08-25T06:11:38.061Z,99152.22
2022-08-25T06:14:05.349Z,99144.59
2022-08-25T06:16:33.041Z,99149.13
2022-08-25T06:19:01.218Z,99162.06
2022-08-25T06:21:29.087Z,99160.88
2022-08-25T06:23:56.444Z,99156.25
2022-08-25T06:26:24.185Z,99158.75
2022-08-25T06:28:51.894Z,99152.12
2022-08-25T06:31:19.278Z,99161.34
2022-08-25T06:33:47.018Z,99158.62
2022-08-25T06:36:14.226Z,99160.94
2022-08-25T06:38:41.528Z,99165.13
2022-08-25T06:41:10.657Z,99171.53
2022-08-25T06:43:38.138Z,99173.03
2022-08-25T06:46:09.375Z,99161.56
2022-08-25T06:48:37.377Z,99171.53
2022-08-25T06:51:08.328Z,99175.69
2022-08-25T06:53:38.412Z,99174.62
2022-08-25T06:56:06.746Z,99180.19
2022-08-25T06:58:34.100Z,99170.78
2022-08-25T07:01:15.935Z,99173.38
2022-08-25T07:03:48.052Z,99184.13
2022-08-25T07:06:18.234Z,99170.91
2022-08-25T07:08:46.424Z,99177.94
2022-08-25T07:11:16.609Z,99170.06
2022-08-25T07:13:45.078Z,99174.34
2022-08-25T07:16:12.599Z,99176.88
2022-08-25T07:18:39.812Z,99171.88
2022-08-25T07:21:08.774Z,99174.09
2022-08-25T07:23:36.822Z,99178.22
2022-08-25T07:26:15.887Z,99175.56
2022-08-25T07:28:54.629Z,99176.38
2022-08-25T07:31:21.968Z,99175.69
2022-08-25T07:34:16.466Z,99167.47
2022-08-25T07:36:44.056Z,99176.91
2022-08-25T07:39:11.578Z,99175.16
2022-08-25T07:41:39.882Z,99174.84
2022-08-25T07:44:07.632Z,99170.81
2022-08-25T07:46:35.147Z,99171.06
2022-08-25T07:49:02.363Z,99171.78
2022-08-25T07:51:29.543Z,99173.44
2022-08-25T07:53:57.041Z,99170.31
2022-08-25T07:56:25.863Z,99166.53
2022-08-25T07:58:53.026Z,99161.25
2022-08-25T08:01:21.801Z,99161.94
2022-08-25T08:03:50.384Z,99162.25
2022-08-25T08:06:20.853Z,99162.16
2022-08-25T08:08:49.401Z,99163.28
2022-08-25T08:11:18.335Z,99163.56
2022-08-25T08:13:46.697Z,99167.75
2022-08-25T08:16:14.614Z,99181.19
2022-08-25T08:18:43.028Z,99171.25
2022-08-25T08:21:20.054Z,99180.72
2022-08-25T08:23:48.550Z,99179.88
2022-08-25T08:26:17.063Z,99170.66
2022-08-25T08:28:44.430Z,99170.31
2022-08-25T08:31:21.137Z,99180.63
2022-08-25T08:33:48.761Z,99167.75
2022-08-25T08:36:16.116Z,99163.34
2022-08-25T08:38:44.327Z,99162.03
2022-08-25T08:41:30.547Z,99166.75
2022-08-25T08:44:07.745Z,99161.91
2022-08-25T08:46:41.154Z,99172.28
2022-08-25T08:49:11.930Z,99165.44
2022-08-25T08:51:42.915Z,99162.72
2022-08-25T08:54:15.216Z,99156.34
2022-08-25T08:56:45.298Z,99162.22
2022-08-25T08:59:30.269Z,99159.69
2022-08-25T09:02:01.981Z,99161.72
2022-08-25T09:04:34.047Z,99159.94
2022-08-25T09:07:01.484Z,99162.84
2022-08-25T09:09:29.379Z,99167.22
2022-08-25T09:12:02.096Z,99154.91
2022-08-25T09:14:38.457Z,99159.94
2022-08-25T09:17:07.205Z,99155.50
2022-08-25T09:19:53.229Z,99151.34
2022-08-25T09:22:35.053Z,99146.16
2022-08-25T09:25:29.402Z,99135.41
2022-08-25T09:28:08.880Z,99140.13
2022-08-25T09:30:47.156Z,99141.47
2022-08-25T09:33:21.001Z,99138.41
2022-08-25T09:35:48.824Z,99134.22
2022-08-25T09:38:17.279Z,99127.28
2022-08-25T09:40:46.346Z,99125.53
2022-08-25T09:43:22.774Z,99130.38
2022-08-25T09:45:56.447Z,99116.81
2022-08-25T09:48:43.330Z,99112.44
2022-08-25T09:51:16.908Z,99114.25
2022-08-25T09:53:55.746Z,99112.13
2022-08-25T09:56:27.740Z,99102.91
2022-08-25T09:58:57.394Z,99103.47
2022-08-25T10:01:28.676Z,99097.09
2022-08-25T10:04:06.693Z,99095.34
2022-08-25T10:06:44.719Z,99093.78
2022-08-25T10:09:15.238Z,99102.97
2022-08-25T10:11:43.852Z,99092.28
2022-08-25T10:14:14.161Z,99092.75
2022-08-25T10:16:41.710Z,99084.31
2022-08-25T10:19:23.638Z,99086.75
2022-08-25T10:22:02.891Z,99086.63
2022-08-25T10:24:30.193Z,99084.72
2022-08-25T10:27:16.951Z,99084.06
2022-08-25T10:30:03.057Z,99077.53
2022-08-25T10:32:30.868Z,99072.78
2022-08-25T10:34:58.672Z,99075.62
2022-08-25T10:37:33.592Z,99070.38
2022-08-25T10:40:20.023Z,99076.22
2022-08-25T10:42:47.218Z,99068.91
2022-08-25T10:45:44.045Z,99069.19
2022-08-25T10:48:26.110Z,99064.06
2022-08-25T10:50:53.494Z,99063.34
2022-08-25T10:53:26.648Z,99060.91
2022-08-25T10:56:00.657Z,99050.13
2022-08-25T10:58:30.770Z,99054.19
2022-08-25T11:01:14.697Z,99045.56
2022-08-25T11:03:50.180Z,99049.06
2022-08-25T11:06:20.833Z,99041.63
2022-08-25T11:08:50.553Z,99043.38
2022-08-25T11:11:26.508Z,99038.63
2022-08-25T11:14:15.307Z,99039.44
2022-08-25T11:16:48.795Z,99040.06
2022-08-25T11:19:21.075Z,99031.94
2022-08-25T11:21:54.121Z,99019.50
2022-08-25T11:24:21.545Z,99020.34
2022-08-25T11:26:53.844Z,99015.75
2022-08-25T11:29:21.847Z,99010.25
2022-08-25T11:31:53.884Z,99011.34
2022-08-25T11:34:21.647Z,99007.19
2022-08-25T11:36:50.616Z,98998.97
2022-08-25T11:39:36.523Z,99001.22
2022-08-25T11:42:22.578Z,98998.38
2022-08-25T11:44:59.176Z,98993.13
2022-08-25T11:47:38.640Z,98997.81
2022-08-25T11:50:07.885Z,98987.50
2022-08-25T11:52:38.049Z,98994.31
2022-08-25T11:55:16.426Z,98989.88
2022-08-25T11:57:44.480Z,98982.47
2022-08-25T12:00:14.718Z,98986.84
2022-08-25T12:02:43.782Z,98987.16
2022-08-25T12:05:16.949Z,98979.94
2022-08-25T12:07:47.466Z,98976.19
2022-08-25T12:10:18.553Z,98966.97
2022-08-25T12:12:46.149Z,98977.22
2022-08-25T12:15:23.345Z,98976.56
2022-08-25T12:18:10.084Z,98969.19
2022-08-25T12:20:54.173Z,98964.16
2022-08-25T12:23:32.962Z,98967.94
2022-08-25T12:26:01.562Z,98965.31
2022-08-25T12:28:35.061Z,98974.56
2022-08-25T12:31:05.215Z,98966.94
2022-08-25T12:33:53.334Z,98965.41
2022-08-25T12:36:27.936Z,98970.84
2022-08-25T12:38:55.345Z,98964.63
2022-08-25T12:41:24.235Z,98953.62
2022-08-25T12:43:52.743Z,98948.78
2022-08-25T12:46:23.311Z,98948.97
2022-08-25T12:48:55.986Z,98949.34
2022-08-25T12:51:25.253Z,98947.38
2022-08-25T12:54:12.324Z,98947.69
2022-08-25T12:56:47.912Z,98950.59
2022-08-25T12:59:22.180Z,98948.72
2022-08-25T13:01:53.392Z,98943.66
2022-08-25T13:04:39.460Z,98946.53
2022-08-25T13:07:09.122Z,98946.81
2022-08-25T13:09:40.658Z,98949.13
2022-08-25T13:12:18.521Z,98937.72
2022-08-25T13:14:47.644Z,98933.84
2022-08-25T13:17:24.784Z,98934.63
2022-08-25T13:19:52.234Z,98932.75
2022-08-25T13:22:20.824Z,98921.44
2022-08-25T13:24:51.182Z,98924.28
2022-08-25T13:27:23.016Z,98926.97
2022-08-25T13:29:51.718Z,98932.59
2022-08-25T13:32:35.454Z,98936.59
2022-08-25T13:35:12.028Z,98926.66
2022-08-25T13:37:42.117Z,98924.38
2022-08-25T13:40:12.315Z,98922.59
2022-08-25T13:42:42.582Z,98923.00
2022-08-25T13:45:14.736Z,98920.69
2022-08-25T13:47:43.582Z,98923.38
2022-08-25T13:50:17.470Z,98925.44
2022-08-25T13:52:49.136Z,98921.44
2022-08-25T13:55:27.510Z,98918.19
2022-08-25T13:57:56.787Z,98920.41
2022-08-25T14:00:31.641Z,98917.03
2022-08-25T14:02:59.566Z,98914.47
2022-08-25T14:05:33.282Z,98913.63
2022-08-25T14:08:15.735Z,98906.03
2022-08-25T14:10:45.511Z,98909.97
2022-08-25T14:13:17.346Z,98909.84
2022-08-25T14:15:46.224Z,98908.91
2022-08-25T14:18:19.157Z,98909.31
2022-08-25T14:20:48.344Z,98905.28
2022-08-25T14:23:19.252Z,98903.78
2022-08-25T14:25:47.125Z,98900.28
2022-08-25T14:28:15.867Z,98896.75
2022-08-25T14:30:53.908Z,98896.03
2022-08-25T14:33:23.830Z,98897.63
2022-08-25T14:35:54.155Z,98895.50
2022-08-25T14:38:22.716Z,98891.59
2022-08-25T14:40:51.077Z,98893.66
2022-08-25T14:43:18.534Z,98895.22
2022-08-25T14:45:51.078Z,98884.00
2022-08-25T14:48:28.999Z,98895.66
2022-08-25T14:50:56.958Z,98892.00
2022-08-25T14:53:25.966Z,98887.72
2022-08-25T14:55:55.676Z,98887.53
2022-08-25T14:58:26.901Z,98891.97
2022-08-25T15:00:55.473Z,98885.28
2022-08-25T15:03:43.471Z,98883.28
2022-08-25T15:06:16.071Z,98880.97
2022-08-25T15:09:01.949Z,98890.78
2022-08-25T15:11:30.750Z,98885.00
2022-08-25T15:14:00.104Z,98886.13
2022-08-25T15:16:33.712Z,98886.22
2022-08-25T15:19:06.496Z,98890.69
2022-08-25T15:21:35.628Z,98896.37
2022-08-25T15:24:04.524Z,98890.78
2022-08-25T15:26:33.797Z,98892.00
2022-08-25T15:29:00.970Z,98891.50
2022-08-25T15:31:28.494Z,98880.75
2022-08-25T15:33:55.706Z,98878.50
2022-08-25T15:36:23.492Z,98887.53
2022-08-25T15:38:53.003Z,98890.09
2022-08-25T15:41:22.403Z,98871.91
2022-08-25T15:43:54.711Z,98877.62
2022-08-25T15:46:24.381Z,98878.13
2022-08-25T15:48:51.848Z,98874.50
2022-08-25T15:51:19.305Z,98869.81
2022-08-25T15:53:46.632Z,98868.38
2022-08-25T15:56:26.360Z,98872.16
2022-08-25T15:58:55.419Z,98870.56
2022-08-25T16:01:24.761Z,98871.78
2022-08-25T16:03:52.617Z,98862.56
2022-08-25T16:06:19.790Z,98860.50
2022-08-25T16:08:47.701Z,98862.28
2022-08-25T16:11:22.053Z,98860.53
2022-08-25T16:13:49.353Z,98862.88
2022-08-25T16:16:18.226Z,98857.91
2022-08-25T16:18:45.680Z,98860.88
2022-08-25T16:21:13.599Z,98852.56
2022-08-25T16:23:41.864Z,98852.28
2022-08-25T16:26:10.651Z,98852.06
2022-08-25T16:28:40.614Z,98856.66
2022-08-25T16:31:12.458Z,98856.06
2022-08-25T16:33:42.857Z,98857.56
2022-08-25T16:36:12.497Z,98855.28
2022-08-25T16:38:40.096Z,98851.88
2022-08-25T16:41:11.934Z,98860.50
2022-08-25T16:43:39.946Z,98856.38
2022-08-25T16:46:08.477Z,98856.75
2022-08-25T16:48:35.989Z,98860.13
2022-08-25T16:51:09.553Z,98854.59
2022-08-25T16:53:55.628Z,98855.19
2022-08-25T16:56:24.773Z,98854.53
2022-08-25T16:58:55.370Z,98856.13
2022-08-25T17:01:25.306Z,98855.63
2022-08-25T17:03:53.424Z,98861.75
2022-08-25T17:06:20.730Z,98868.03
2022-08-25T17:08:50.816Z,98864.50
2022-08-25T17:11:26.513Z,98866.22
2022-08-25T17:13:55.690Z,98867.75
2022-08-25T17:16:26.340Z,98866.37
2022-08-25T17:18:55.179Z,98866.00
2022-08-25T17:21:24.481Z,98870.94
2022-08-25T17:23:52.604Z,98862.03
2022-08-25T17:26:20.127Z,98866.28
2022-08-25T17:28:55.392Z,98864.84
2022-08-25T17:31:23.980Z,98870.22
2022-08-25T17:33:52.377Z,98874.09
2022-08-25T17:36:20.847Z,98868.50
2022-08-25T17:38:56.808Z,98872.22
2022-08-25T17:41:24.336Z,98863.72
2022-08-25T17:43:51.496Z,98867.41
2022-08-25T17:46:19.013Z,98878.19
2022-08-25T17:48:46.438Z,98878.66
2022-08-25T17:51:16.397Z,98878.94
2022-08-25T17:53:43.938Z,98887.81
2022-08-25T17:56:13.678Z,98879.44
2022-08-25T17:58:41.313Z,98883.94
2022-08-25T18:01:14.691Z,98887.16
2022-08-25T18:03:43.483Z,98888.34
2022-08-25T18:06:11.831Z,98887.87
2022-08-25T18:08:42.969Z,98885.47
2022-08-25T18:11:10.365Z,98894.03
2022-08-25T18:13:39.811Z,98897.16
2022-08-25T18:16:08.177Z,98891.19
2022-08-25T18:18:36.328Z,98890.84
2022-08-25T18:21:03.547Z,98898.03
2022-08-25T18:23:34.328Z,98900.84
2022-08-25T18:26:02.569Z,98901.25
2022-08-25T18:28:30.226Z,98899.00
2022-08-25T18:30:57.753Z,98899.75
2022-08-25T18:33:25.538Z,98898.81
2022-08-25T18:35:57.587Z,98906.31
2022-08-25T18:38:43.700Z,98909.81
2022-08-25T18:41:11.159Z,98900.59
2022-08-25T18:43:39.720Z,98897.44
2022-08-25T18:46:08.282Z,98906.94
2022-08-25T18:48:37.229Z,98912.41
2022-08-25T18:51:05.195Z,98905.41
2022-08-25T18:53:37.386Z,98906.59
2022-08-25T18:56:18.085Z,98898.84
2022-08-25T18:58:45.589Z,98901.13
2022-08-25T19:01:16.276Z,98901.09
2022-08-25T19:03:44.511Z,98903.03
2022-08-25T19:06:11.918Z,98907.19
2022-08-25T19:08:41.858Z,98902.19
2022-08-25T19:11:10.068Z,98904.56
2022-08-25T19:13:37.795Z,98906.69
2022-08-25T19:16:12.115Z,98895.78
2022-08-25T19:18:41.783Z,98895.00
2022-08-25T19:21:09.272Z,98894.16
2022-08-25T19:23:39.499Z,98904.31
2022-08-25T19:26:13.856Z,98895.47
2022-08-25T19:28:45.503Z,98889.44
2022-08-25T19:31:13.616Z,98892.88
2022-08-25T19:33:45.054Z,98890.44
2022-08-25T19:36:12.857Z,98890.66
2022-08-25T19:38:44.198Z,98896.19
2022-08-25T19:41:14.020Z,98895.22
2022-08-25T19:43:55.735Z,98893.84
2022-08-25T19:46:25.649Z,98887.38
2022-08-25T19:49:03.644Z,98887.09
2022-08-25T19:51:34.715Z,98890.50
2022-08-25T19:54:04.553Z,98892.44
2022-08-25T19:56:32.620Z,98892.44
2022-08-25T19:59:03.683Z,98892.28
2022-08-25T20:01:31.244Z,98888.91
2022-08-25T20:03:58.843Z,98900.34
2022-08-25T20:06:27.785Z,98890.28
2022-08-25T20:08:58.926Z,98894.75
2022-08-25T20:11:28.448Z,98894.53
2022-08-25T20:13:58.187Z,98891.66
2022-08-25T20:16:28.320Z,98900.28
2022-08-25T20:18:55.693Z,98884.66
2022-08-25T20:21:24.034Z,98891.00
2022-08-25T20:24:10.012Z,98889.75
2022-08-25T20:26:37.407Z,98890.03
2022-08-25T20:29:07.513Z,98893.09
2022-08-25T20:31:37.017Z,98898.50
2022-08-25T20:34:04.980Z,98887.31
2022-08-25T20:36:32.183Z,98897.78
2022-08-25T20:38:59.365Z,98891.03
2022-08-25T20:41:27.487Z,98900.69
2022-08-25T20:43:54.678Z,98889.09
2022-08-25T20:46:22.791Z,98898.34
2022-08-25T20:48:50.414Z,98896.37
2022-08-25T20:51:18.729Z,98896.37
2022-08-25T20:53:45.997Z,98894.47
2022-08-25T20:56:14.515Z,98896.06
2022-08-25T20:58:44.363Z,98894.78
2022-08-25T21:01:20.341Z,98890.69
2022-08-25T21:03:50.862Z,98898.50
2022-08-25T21:06:18.077Z,98894.97
2022-08-25T21:08:47.337Z,98897.66
2022-08-25T21:11:15.964Z,98893.28
2022-08-25T21:13:43.863Z,98896.78
2022-08-25T21:16:11.322Z,98893.53
2022-08-25T21:18:47.888Z,98892.41
2022-08-25T21:21:16.584Z,98890.34
2022-08-25T21:23:45.150Z,98896.22
2022-08-25T21:26:13.681Z,98883.53
2022-08-25T21:28:40.849Z,98883.03
2022-08-25T21:31:16.167Z,98880.34
2022-08-25T21:33:45.635Z,98880.97
2022-08-25T21:36:13.468Z,98885.12
2022-08-25T21:38:42.309Z,98879.75
2022-08-25T21:41:14.528Z,98883.25
2022-08-25T21:43:42.286Z,98878.63
2022-08-25T21:46:13.203Z,98881.31
2022-08-25T21:48:40.581Z,98875.44
2022-08-25T21:51:09.144Z,98878.38
2022-08-25T21:53:36.661Z,98880.06
2022-08-25T21:56:04.825Z,98878.13
2022-08-25T21:58:32.954Z,98872.41
2022-08-25T22:01:07.224Z,98875.19
2022-08-25T22:03:39.081Z,98874.47
2022-08-25T22:06:07.084Z,98872.00
2022-08-25T22:08:34.997Z,98875.31
2022-08-25T22:11:05.273Z,98878.88
2022-08-25T22:13:32.799Z,98867.28
2022-08-25T22:16:00.582Z,98870.19
2022-08-25T22:18:29.313Z,98874.25
2022-08-25T22:20:57.834Z,98873.25
2022-08-25T22:23:28.309Z,98865.87
2022-08-25T22:25:58.418Z,98876.47
2022-08-25T22:28:27.025Z,98876.22
2022-08-25T22:31:04.074Z,98872.91
2022-08-25T22:33:31.267Z,98876.09
2022-08-25T22:35:59.940Z,98874.88
2022-08-25T22:38:27.439Z,98873.97
2022-08-25T22:40:54.721Z,98871.78
2022-08-25T22:43:22.255Z,98865.00
2022-08-25T22:45:49.700Z,98870.81
2022-08-25T22:48:20.830Z,98866.19
2022-08-25T22:50:48.569Z,98866.28
2022-08-25T22:53:16.251Z,98860.25
2022-08-25T22:55:43.583Z,98862.53
2022-08-25T22:58:11.779Z,98864.25
2022-08-25T23:00:40.523Z,98857.06
2022-08-25T23:03:10.106Z,98856.44
2022-08-25T23:05:39.197Z,98860.38
2022-08-25T23:08:06.380Z,98851.09
2022-08-25T23:10:34.433Z,98852.19
2022-08-25T23:13:01.949Z,98852.28
2022-08-25T23:15:34.340Z,98849.13
2022-08-25T23:18:01.790Z,98854.75
2022-08-25T23:20:47.472Z,98850.44
2022-08-25T23:23:15.087Z,98847.06
2022-08-25T23:25:42.361Z,98843.03
2022-08-25T23:28:09.834Z,98844.13
2022-08-25T23:30:38.526Z,98847.66
2022-08-25T23:33:06.349Z,98847.69
2022-08-25T23:35:33.633Z,98844.50
2022-08-25T23:38:01.070Z,98836.53
2022-08-25T23:40:32.310Z,98845.97
2022-08-25T23:42:59.547Z,98836.97
2022-08-25T23:45:27.031Z,98839.03
2022-08-25T23:47:54.271Z,98829.53
2022-08-25T23:50:22.199Z,98830.16
2022-08-25T23:52:49.864Z,98837.44
2022-08-25T23:55:19.579Z,98837.28
2022-08-25T23:57:46.752Z,98832.38
